Time;durP1;ratioP1;P1;durP2;ratioP2;P2;SDS_P1;SDS_P2;PMS_P1;PMS_P2;Temp;Humidity;BMP_temperature;BMP_pressure;BME280_temperature;BME280_humidity;BME280_pressure;Samples;Min_cycle;Max_cycle;Signal;HPM_P1;HPM_P2
2021/06/20 00:02:04;;;;;;;30.88;25.17;;;18.10;81.80;;;;;;4428409;32;20105;-80
2021/06/20 00:04:31;;;;;;;33.55;25.58;;;18.10;81.80;;;;;;4436862;32;20068;-79
2021/06/20 00:06:58;;;;;;;35.25;26.15;;;18.00;81.80;;;;;;4436746;32;20049;-80
2021/06/20 00:09:25;;;;;;;34.25;25.80;;;18.00;81.90;;;;;;4438119;32;20128;-80
2021/06/20 00:11:52;;;;;;;34.47;26.73;;;18.00;81.90;;;;;;4437024;32;20444;-80
2021/06/20 00:14:19;;;;;;;36.35;26.02;;;18.00;82.00;;;;;;4436914;32;20068;-80
2021/06/20 00:16:46;;;;;;;33.70;24.87;;;18.00;82.10;;;;;;4436889;32;20121;-79
2021/06/20 00:19:13;;;;;;;39.55;26.73;;;18.00;82.20;;;;;;4437757;32;20463;-79
2021/06/20 00:21:41;;;;;;;31.17;23.40;;;18.00;82.20;;;;;;4437765;32;20120;-80
2021/06/20 00:24:08;;;;;;;34.70;24.77;;;18.00;82.20;;;;;;4437960;32;20097;-80
2021/06/20 00:26:36;;;;;;;36.03;24.52;;;18.00;82.20;;;;;;4436814;32;20117;-80
2021/06/20 00:29:03;;;;;;;39.13;27.95;;;18.00;82.20;;;;;;4437491;32;20476;-80
2021/06/20 00:31:31;;;;;;;35.47;26.67;;;18.00;82.20;;;;;;4437802;32;20033;-80
2021/06/20 00:33:58;;;;;;;33.20;26.25;;;18.00;82.30;;;;;;4436693;32;20034;-80
2021/06/20 00:36:25;;;;;;;33.50;27.17;;;18.00;82.30;;;;;;4439372;32;20110;-80
2021/06/20 00:38:52;;;;;;;36.42;25.77;;;18.00;82.30;;;;;;4436663;32;20093;-80
2021/06/20 00:41:19;;;;;;;37.00;28.90;;;18.00;82.30;;;;;;4438519;32;20506;-80
2021/06/20 00:43:46;;;;;;;32.03;26.70;;;18.00;82.30;;;;;;4437941;32;20113;-79
2021/06/20 00:46:13;;;;;;;37.22;27.98;;;18.00;82.30;;;;;;4437532;32;20030;-80
2021/06/20 00:48:41;;;;;;;34.50;27.20;;;18.00;82.30;;;;;;4438877;32;20026;-79
2021/06/20 00:51:08;;;;;;;35.40;27.37;;;18.00;82.40;;;;;;4433765;32;20434;-79
2021/06/20 00:53:36;;;;;;;36.33;23.95;;;18.00;82.30;;;;;;4423196;32;20090;-80
2021/06/20 00:56:03;;;;;;;36.22;25.62;;;18.00;82.30;;;;;;4434593;32;20088;-79
2021/06/20 00:58:30;;;;;;;36.22;26.35;;;18.00;82.30;;;;;;4423578;32;20436;-80
2021/06/20 01:00:58;;;;;;;33.70;24.10;;;18.00;82.40;;;;;;4423603;32;20477;-80
2021/06/20 01:03:25;;;;;;;36.17;26.10;;;18.00;82.40;;;;;;4437950;32;20106;-80
2021/06/20 01:05:52;;;;;;;33.38;25.20;;;18.00;82.40;;;;;;4423116;32;20110;-80
2021/06/20 01:08:19;;;;;;;30.75;23.77;;;18.10;82.40;;;;;;4437151;32;20068;-79
2021/06/20 01:10:46;;;;;;;34.17;26.52;;;18.10;82.40;;;;;;4437229;32;20101;-79
2021/06/20 01:13:16;;;;;;;27.15;20.58;;;18.10;82.30;;;;;;4425202;32;20105;-80
2021/06/20 01:15:49;;;;;;;33.63;25.83;;;18.10;82.30;;;;;;4437092;32;20214;-79
2021/06/20 01:18:18;;;;;;;32.05;25.52;;;18.10;82.30;;;;;;4437183;32;20022;-80
2021/06/20 01:20:46;;;;;;;28.80;22.42;;;18.10;82.30;;;;;;4436941;32;20023;-79
2021/06/20 01:23:13;;;;;;;31.15;24.48;;;18.20;82.30;;;;;;4437061;32;20097;-80
2021/06/20 01:25:42;;;;;;;34.45;24.12;;;18.10;82.30;;;;;;4423861;32;20117;-80
2021/06/20 01:28:10;;;;;;;23.85;20.10;;;18.10;82.30;;;;;;4423170;32;20065;-80
2021/06/20 01:30:40;;;;;;;28.75;23.92;;;18.20;82.30;;;;;;4423166;32;20045;-79
2021/06/20 01:33:09;;;;;;;36.55;27.33;;;18.20;82.30;;;;;;4423002;32;20053;-80
2021/06/20 01:35:37;;;;;;;25.30;19.85;;;18.20;82.20;;;;;;4436690;32;20027;-80
2021/06/20 01:38:07;;;;;;;34.17;24.83;;;18.10;82.20;;;;;;4423285;32;20492;-80
2021/06/20 01:40:35;;;;;;;29.85;24.10;;;18.20;82.20;;;;;;4422914;32;20050;-80
2021/06/20 01:43:03;;;;;;;33.85;26.27;;;18.10;82.20;;;;;;4423024;32;20120;-80
2021/06/20 01:45:31;;;;;;;32.88;26.70;;;18.20;82.20;;;;;;4423846;32;20052;-80
2021/06/20 01:47:59;;;;;;;26.65;22.17;;;18.20;82.20;;;;;;4422843;32;20046;-80
2021/06/20 01:50:27;;;;;;;31.85;22.33;;;18.20;82.20;;;;;;4426976;32;20467;-80
2021/06/20 01:53:00;;;;;;;32.47;25.75;;;18.20;82.20;;;;;;4437615;32;20064;-80
2021/06/20 01:55:28;;;;;;;32.55;25.27;;;18.20;82.20;;;;;;4436188;32;20110;-80
2021/06/20 01:57:55;;;;;;;31.98;24.98;;;18.20;82.20;;;;;;4436613;32;20030;-80
2021/06/20 02:00:22;;;;;;;27.02;22.83;;;18.20;82.10;;;;;;4436556;32;20507;-80
2021/06/20 02:02:49;;;;;;;34.60;25.37;;;18.20;82.10;;;;;;4423619;32;20049;-80
2021/06/20 02:05:16;;;;;;;33.33;24.05;;;18.20;82.10;;;;;;4424200;32;20100;-80
2021/06/20 02:07:44;;;;;;;32.80;25.05;;;18.20;82.10;;;;;;4436376;32;20136;-80
2021/06/20 02:10:13;;;;;;;25.88;21.85;;;18.20;82.10;;;;;;4437014;32;20123;-80
2021/06/20 02:12:40;;;;;;;33.17;27.55;;;18.20;82.10;;;;;;4422572;32;20111;-80
2021/06/20 02:15:09;;;;;;;31.50;25.10;;;18.20;82.10;;;;;;4437383;32;20030;-80
2021/06/20 02:17:38;;;;;;;31.55;26.20;;;18.20;82.10;;;;;;4422329;32;20443;-80
2021/06/20 02:20:11;;;;;;;27.98;22.65;;;18.20;82.00;;;;;;4422372;32;20105;-80
2021/06/20 02:22:39;;;;;;;25.17;20.53;;;18.20;82.00;;;;;;4422471;32;20109;-80
2021/06/20 02:25:11;;;;;;;23.58;19.60;;;18.20;82.00;;;;;;4423164;32;20068;-80
2021/06/20 02:27:40;;;;;;;27.50;21.30;;;18.20;82.10;;;;;;4424116;32;20429;-80
2021/06/20 02:30:08;;;;;;;31.73;24.27;;;18.10;82.00;;;;;;4422405;32;20097;-80
2021/06/20 02:32:37;;;;;;;27.02;22.60;;;18.20;82.00;;;;;;4422139;32;20053;-80
2021/06/20 02:35:06;;;;;;;31.42;22.70;;;18.20;82.00;;;;;;4422343;32;20112;-80
2021/06/20 02:37:34;;;;;;;33.67;22.62;;;18.20;82.00;;;;;;4436096;32;20449;-80
2021/06/20 02:40:02;;;;;;;29.85;21.40;;;18.20;82.00;;;;;;4422428;32;20435;-80
2021/06/20 02:42:29;;;;;;;24.70;21.00;;;18.20;82.00;;;;;;4422335;32;20113;-80
2021/06/20 02:44:56;;;;;;;23.23;17.45;;;18.20;82.00;;;;;;4422309;32;20121;-80
2021/06/20 02:47:23;;;;;;;27.45;21.42;;;18.10;82.00;;;;;;4435767;32;20102;-80
2021/06/20 02:49:51;;;;;;;32.63;25.95;;;18.10;82.00;;;;;;4422168;32;20109;-80
2021/06/20 02:52:18;;;;;;;27.00;21.37;;;18.10;82.00;;;;;;4440616;32;20420;-80
2021/06/20 02:54:51;;;;;;;30.50;23.60;;;18.10;81.90;;;;;;4421935;32;20101;-80
2021/06/20 02:57:22;;;;;;;30.80;22.87;;;18.10;81.90;;;;;;4423980;32;20069;-80
2021/06/20 02:59:53;;;;;;;22.98;19.37;;;18.10;81.90;;;;;;4423858;32;20538;-81
2021/06/20 03:02:21;;;;;;;31.17;23.25;;;18.10;81.80;;;;;;4435718;32;20052;-80
2021/06/20 03:04:51;;;;;;;27.08;21.30;;;18.10;81.70;;;;;;4437260;32;20105;-80
2021/06/20 03:07:18;;;;;;;25.33;20.48;;;18.00;81.70;;;;;;4424477;32;20049;-80
2021/06/20 03:09:45;;;;;;;18.55;16.30;;;18.10;81.70;;;;;;4425200;32;20053;-80
2021/06/20 03:12:13;;;;;;;27.98;22.30;;;18.00;81.70;;;;;;4425184;32;20172;-81
2021/06/20 03:14:42;;;;;;;25.08;18.15;;;18.00;81.60;;;;;;4425199;32;20071;-80
2021/06/20 03:17:10;;;;;;;27.58;22.13;;;18.00;81.70;;;;;;4438656;32;20101;-80
2021/06/20 03:19:39;;;;;;;26.00;18.75;;;18.00;81.70;;;;;;4438911;32;20097;-80
2021/06/20 03:22:07;;;;;;;21.60;18.40;;;17.90;81.70;;;;;;4438807;32;20040;-80
2021/06/20 03:24:38;;;;;;;22.25;19.67;;;17.90;81.70;;;;;;4425178;32;20030;-81
2021/06/20 03:27:07;;;;;;;26.75;18.45;;;17.90;81.70;;;;;;4425263;32;20057;-80
2021/06/20 03:29:35;;;;;;;21.85;17.70;;;17.90;81.70;;;;;;4425012;32;20038;-80
2021/06/20 03:32:02;;;;;;;25.33;18.52;;;17.90;81.60;;;;;;4424665;32;20101;-80
2021/06/20 03:34:31;;;;;;;27.45;16.40;;;17.90;81.60;;;;;;4439593;32;20052;-80
2021/06/20 03:36:59;;;;;;;22.30;15.77;;;17.80;81.60;;;;;;4438537;32;20104;-80
2021/06/20 03:39:26;;;;;;;19.62;15.95;;;17.70;81.70;;;;;;4424847;32;20121;-80
2021/06/20 03:41:53;;;;;;;19.95;15.82;;;17.70;81.70;;;;;;4438520;32;20397;-80
2021/06/20 03:44:20;;;;;;;16.75;12.37;;;17.60;81.70;;;;;;4438505;32;20414;-80
2021/06/20 03:46:47;;;;;;;16.98;13.18;;;17.60;81.70;;;;;;4424298;32;20451;-80
2021/06/20 03:49:15;;;;;;;16.65;12.45;;;17.50;81.70;;;;;;4438425;32;20409;-80
2021/06/20 03:51:43;;;;;;;17.50;11.73;;;17.50;81.80;;;;;;4429537;32;20113;-80
2021/06/20 03:54:10;;;;;;;18.50;10.00;;;17.40;81.80;;;;;;4426241;32;20109;-80
2021/06/20 03:56:37;;;;;;;15.65;10.45;;;17.50;81.80;;;;;;4424448;32;20468;-81
2021/06/20 03:59:08;;;;;;;17.10;8.55;;;17.40;81.80;;;;;;4424334;32;20405;-80
2021/06/20 04:01:36;;;;;;;15.77;9.30;;;17.40;81.90;;;;;;4427177;32;20041;-80
2021/06/20 04:04:04;;;;;;;12.50;8.60;;;17.30;81.90;;;;;;4454678;32;20046;-80
2021/06/20 04:06:31;;;;;;;9.77;7.25;;;17.30;82.00;;;;;;4439633;32;20053;-80
2021/06/20 04:08:58;;;;;;;20.08;7.72;;;17.30;81.90;;;;;;4439877;32;20058;-80
2021/06/20 04:11:26;;;;;;;16.42;7.87;;;17.20;81.90;;;;;;4441496;32;20491;-80
2021/06/20 04:13:53;;;;;;;12.50;7.12;;;17.20;82.00;;;;;;4439533;32;20094;-80
2021/06/20 04:16:21;;;;;;;10.07;6.12;;;17.20;82.00;;;;;;4439614;32;20067;-80
2021/06/20 04:18:49;;;;;;;12.90;5.37;;;17.10;82.00;;;;;;4439593;32;20412;-80
2021/06/20 04:21:16;;;;;;;7.07;4.87;;;17.10;82.00;;;;;;4440865;32;20145;-79
2021/06/20 04:23:44;;;;;;;13.15;5.32;;;17.10;81.90;;;;;;4453265;32;20069;-79
2021/06/20 04:26:12;;;;;;;8.52;4.45;;;17.00;81.90;;;;;;4441217;32;20124;-80
2021/06/20 04:28:40;;;;;;;10.57;5.12;;;17.00;81.90;;;;;;4453143;32;20397;-79
2021/06/20 04:31:08;;;;;;;9.55;4.28;;;16.90;81.90;;;;;;4454186;32;20072;-80
2021/06/20 04:33:35;;;;;;;12.57;3.87;;;16.90;82.00;;;;;;4439373;32;20071;-80
2021/06/20 04:36:03;;;;;;;5.62;3.25;;;16.90;82.10;;;;;;4439188;32;20045;-80
2021/06/20 04:38:30;;;;;;;10.38;3.75;;;16.90;82.20;;;;;;4453705;32;20049;-80
2021/06/20 04:41:05;;;;;;;7.12;3.42;;;16.90;82.20;;;;;;4453123;32;20034;-80
2021/06/20 04:43:56;;;;;;;7.85;2.97;;;16.80;82.20;;;;;;4452923;32;20071;-80
2021/06/20 04:46:23;;;;;;;6.85;3.40;;;16.80;82.20;;;;;;4452781;32;20140;-80
2021/06/20 04:48:52;;;;;;;5.80;2.85;;;16.80;82.20;;;;;;4439230;32;20038;-80
2021/06/20 04:51:19;;;;;;;4.93;2.53;;;16.80;82.20;;;;;;4434419;32;20101;-80
2021/06/20 04:53:47;;;;;;;6.40;3.08;;;16.80;82.20;;;;;;4423721;32;20062;-80
2021/06/20 04:56:14;;;;;;;4.10;2.20;;;16.90;82.20;;;;;;4423756;32;20141;-80
2021/06/20 04:58:42;;;;;;;8.10;2.03;;;16.80;82.20;;;;;;4423399;32;20114;-80
2021/06/20 05:01:09;;;;;;;5.22;2.08;;;16.80;82.20;;;;;;4423540;32;20049;-81
2021/06/20 05:03:36;;;;;;;3.62;2.00;;;16.80;82.20;;;;;;4452823;32;20048;-80
2021/06/20 05:06:03;;;;;;;3.87;2.15;;;16.80;82.20;;;;;;4454366;32;20167;-80
2021/06/20 05:08:31;;;;;;;8.32;2.40;;;16.80;82.20;;;;;;4438806;32;20026;-80
2021/06/20 05:10:58;;;;;;;3.62;1.80;;;16.80;82.20;;;;;;4438754;32;20045;-80
2021/06/20 05:13:25;;;;;;;8.73;2.22;;;16.80;82.30;;;;;;4452511;32;20101;-80
2021/06/20 05:15:53;;;;;;;8.73;1.83;;;16.80;82.30;;;;;;4438646;32;20116;-80
2021/06/20 05:18:20;;;;;;;7.30;1.90;;;16.80;82.30;;;;;;4453349;32;20109;-80
2021/06/20 05:20:47;;;;;;;4.53;1.52;;;16.80;82.40;;;;;;4438752;32;20054;-81
2021/06/20 05:23:14;;;;;;;4.75;1.77;;;16.70;82.40;;;;;;4438523;32;20144;-81
2021/06/20 05:25:42;;;;;;;7.07;1.80;;;16.70;82.40;;;;;;4438595;32;20116;-80
2021/06/20 05:28:08;;;;;;;7.30;1.50;;;16.80;82.50;;;;;;4451810;32;20109;-80
2021/06/20 05:30:36;;;;;;;8.25;1.85;;;16.70;82.50;;;;;;4452231;32;20040;-80
2021/06/20 05:33:03;;;;;;;5.55;1.85;;;16.80;82.60;;;;;;4438521;32;20075;-81
2021/06/20 05:35:30;;;;;;;7.10;1.60;;;16.80;82.60;;;;;;4440116;32;20033;-81
2021/06/20 05:37:57;;;;;;;4.43;1.70;;;16.70;82.60;;;;;;4438454;32;20042;-81
2021/06/20 05:40:24;;;;;;;7.43;1.70;;;16.80;82.70;;;;;;4452112;32;20145;-81
2021/06/20 05:42:51;;;;;;;5.10;1.50;;;16.80;82.70;;;;;;4438469;32;20116;-81
2021/06/20 05:45:18;;;;;;;10.40;1.50;;;16.80;82.80;;;;;;4452170;32;20101;-81
2021/06/20 05:47:46;;;;;;;3.58;1.55;;;16.80;82.80;;;;;;4437989;32;20052;-81
2021/06/20 05:50:13;;;;;;;3.78;1.37;;;16.80;82.90;;;;;;4452052;32;20096;-80
2021/06/20 05:52:40;;;;;;;8.10;1.23;;;16.80;82.80;;;;;;4425230;32;20489;-80
2021/06/20 05:55:08;;;;;;;4.20;1.60;;;16.90;82.70;;;;;;4436465;32;20076;-80
2021/06/20 05:57:35;;;;;;;3.37;1.40;;;16.80;82.60;;;;;;4436963;32;20101;-80
2021/06/20 06:00:06;;;;;;;3.70;1.70;;;16.90;82.60;;;;;;4424459;32;20113;-80
2021/06/20 06:02:33;;;;;;;3.97;1.30;;;16.80;82.60;;;;;;4431644;32;20033;-80
2021/06/20 06:05:00;;;;;;;5.85;1.62;;;16.80;82.70;;;;;;4437999;32;20452;-80
2021/06/20 06:07:27;;;;;;;5.57;1.33;;;16.80;82.60;;;;;;4451850;32;20097;-80
2021/06/20 06:09:54;;;;;;;8.52;1.70;;;16.90;82.70;;;;;;4451646;32;20088;-79
2021/06/20 06:12:23;;;;;;;3.45;1.30;;;16.90;82.70;;;;;;4451875;32;20052;-80
2021/06/20 06:14:55;;;;;;;6.43;1.70;;;16.90;82.70;;;;;;4438023;32;20078;-80
2021/06/20 06:17:23;;;;;;;4.80;1.75;;;16.90;82.80;;;;;;4437991;32;20491;-80
2021/06/20 06:19:52;;;;;;;3.53;1.40;;;16.90;82.70;;;;;;4437856;32;20425;-79
2021/06/20 06:22:21;;;;;;;5.57;1.60;;;16.90;82.70;;;;;;4437800;32;20109;-79
2021/06/20 06:24:49;;;;;;;5.12;1.67;;;16.90;82.60;;;;;;4452366;32;20429;-79
2021/06/20 06:27:17;;;;;;;6.12;1.90;;;16.90;82.50;;;;;;4439465;32;20155;-79
2021/06/20 06:29:44;;;;;;;7.75;2.45;;;16.90;82.50;;;;;;4451667;32;20049;-80
2021/06/20 06:32:11;;;;;;;7.30;2.20;;;16.90;82.40;;;;;;4437871;32;20054;-79
2021/06/20 06:34:39;;;;;;;5.93;2.67;;;16.90;82.40;;;;;;4452320;32;20100;-81
2021/06/20 06:37:06;;;;;;;7.40;2.53;;;17.00;82.50;;;;;;4451834;32;20091;-80
2021/06/20 06:39:34;;;;;;;5.80;2.75;;;16.90;82.50;;;;;;4437443;32;20064;-80
2021/06/20 06:42:01;;;;;;;5.95;2.40;;;16.90;82.50;;;;;;4451623;32;20025;-83
2021/06/20 06:44:28;;;;;;;6.20;2.70;;;17.00;82.60;;;;;;4428239;32;20063;-82
2021/06/20 06:46:56;;;;;;;5.82;3.10;;;17.00;82.60;;;;;;4437013;32;20119;-83
2021/06/20 06:49:23;;;;;;;9.55;3.30;;;17.10;82.60;;;;;;4429938;32;20034;-81
2021/06/20 06:51:51;;;;;;;6.68;2.95;;;17.10;82.50;;;;;;4439633;32;20088;-78
2021/06/20 06:54:18;;;;;;;9.77;3.60;;;17.10;82.50;;;;;;4434516;32;20099;-78
2021/06/20 06:56:46;;;;;;;5.75;3.33;;;17.10;82.50;;;;;;4434940;32;20093;-81
2021/06/20 06:59:13;;;;;;;10.80;4.22;;;17.20;82.50;;;;;;4430494;32;20460;-81
2021/06/20 07:01:41;;;;;;;6.65;3.70;;;17.20;82.50;;;;;;4432435;32;20117;-79
2021/06/20 07:04:08;;;;;;;7.72;4.05;;;17.20;82.50;;;;;;4435711;32;20049;-79
2021/06/20 07:06:35;;;;;;;6.97;4.10;;;17.30;82.50;;;;;;4434822;32;20587;-79
2021/06/20 07:09:03;;;;;;;6.75;4.35;;;17.30;82.50;;;;;;4420708;32;20061;-78
2021/06/20 07:11:30;;;;;;;7.62;4.18;;;17.40;82.40;;;;;;4420836;32;20360;-78
2021/06/20 07:13:57;;;;;;;5.80;4.12;;;17.40;82.40;;;;;;4434804;32;20097;-77
2021/06/20 07:16:24;;;;;;;9.73;3.97;;;17.40;82.30;;;;;;4434750;32;20056;-79
2021/06/20 07:18:51;;;;;;;8.02;3.55;;;17.50;82.40;;;;;;4421125;32;20114;-77
2021/06/20 07:21:19;;;;;;;7.00;3.72;;;17.60;82.50;;;;;;4421056;32;20046;-78
2021/06/20 07:23:46;;;;;;;6.15;3.85;;;17.70;82.60;;;;;;4434585;32;20115;-80
2021/06/20 07:26:14;;;;;;;7.95;4.07;;;17.80;82.70;;;;;;4420781;32;20057;-81
2021/06/20 07:28:41;;;;;;;5.25;3.60;;;17.90;82.70;;;;;;4420899;32;20168;-80
2021/06/20 07:31:08;;;;;;;5.95;3.40;;;18.00;82.60;;;;;;4435832;32;20072;-78
2021/06/20 07:33:35;;;;;;;9.70;3.53;;;18.10;82.40;;;;;;4421057;32;20045;-77
2021/06/20 07:36:03;;;;;;;5.05;3.10;;;18.20;82.20;;;;;;4421161;32;20670;-78
2021/06/20 07:38:30;;;;;;;9.00;3.30;;;18.30;82.10;;;;;;4430284;32;20128;-77
2021/06/20 07:40:57;;;;;;;6.75;3.08;;;18.40;81.70;;;;;;4436273;32;20027;-78
2021/06/20 07:43:25;;;;;;;7.25;3.00;;;18.40;80.90;;;;;;4436571;32;20331;-78
2021/06/20 07:45:55;;;;;;;7.18;3.00;;;18.50;80.70;;;;;;4435560;32;20101;-78
2021/06/20 07:48:24;;;;;;;7.97;3.42;;;18.50;80.50;;;;;;4449924;32;20473;-78
2021/06/20 07:50:52;;;;;;;7.25;2.85;;;18.60;80.40;;;;;;4434818;32;20120;-78
2021/06/20 07:53:19;;;;;;;8.48;2.70;;;18.60;80.20;;;;;;4422459;32;20042;-78
2021/06/20 07:55:46;;;;;;;4.97;2.80;;;18.70;79.60;;;;;;4423339;32;20140;-77
2021/06/20 07:58:14;;;;;;;4.43;2.47;;;18.70;79.40;;;;;;4423882;32;20066;-78
2021/06/20 08:00:41;;;;;;;4.57;2.67;;;18.70;79.70;;;;;;4424153;32;20027;-79
2021/06/20 08:03:09;;;;;;;7.75;2.90;;;18.80;79.80;;;;;;4449876;32;20097;-79
2021/06/20 08:05:36;;;;;;;6.20;3.00;;;18.90;79.70;;;;;;4438623;32;20088;-79
2021/06/20 08:08:03;;;;;;;5.18;2.65;;;18.90;79.50;;;;;;4438382;32;20147;-79
2021/06/20 08:10:30;;;;;;;6.40;2.37;;;19.00;78.80;;;;;;4453624;32;20120;-78
2021/06/20 08:12:57;;;;;;;6.70;2.55;;;19.10;78.30;;;;;;4440101;32;20071;-81
2021/06/20 08:15:26;;;;;;;6.22;2.45;;;19.10;78.20;;;;;;4438554;32;20127;-82
2021/06/20 08:17:53;;;;;;;4.90;2.30;;;19.20;78.40;;;;;;4438281;32;20125;-83
2021/06/20 08:20:21;;;;;;;8.25;2.80;;;19.20;78.40;;;;;;4438402;32;20034;-80
2021/06/20 08:22:48;;;;;;;8.73;2.58;;;19.30;78.10;;;;;;4438162;32;20100;-81
2021/06/20 08:25:15;;;;;;;4.35;2.30;;;19.40;78.00;;;;;;4452265;32;20453;-81
2021/06/20 08:27:43;;;;;;;7.68;2.50;;;19.50;77.80;;;;;;4438697;32;20334;-81
2021/06/20 08:30:11;;;;;;;7.82;2.67;;;19.50;77.40;;;;;;4438040;32;20112;-82
2021/06/20 08:32:39;;;;;;;4.87;2.15;;;19.60;77.30;;;;;;4439158;32;20478;-81
2021/06/20 08:35:07;;;;;;;5.22;2.37;;;19.70;77.10;;;;;;4438230;32;20149;-84
2021/06/20 08:37:34;;;;;;;4.55;2.40;;;19.80;76.80;;;;;;4421053;32;20558;-83
2021/06/20 08:40:03;;;;;;;4.68;2.70;;;19.80;76.50;;;;;;4439055;32;20090;-78
2021/06/20 08:42:30;;;;;;;6.97;2.72;;;19.90;76.30;;;;;;4452156;32;20109;-78
2021/06/20 08:44:57;;;;;;;6.28;2.80;;;19.90;76.40;;;;;;4452407;32;20064;-79
2021/06/20 08:47:24;;;;;;;4.40;2.30;;;19.90;76.10;;;;;;4432713;32;20097;-78
2021/06/20 08:49:55;;;;;;;6.03;2.62;;;19.90;75.70;;;;;;4423565;32;20072;-78
2021/06/20 08:52:23;;;;;;;7.30;2.78;;;20.00;75.60;;;;;;4437639;32;20146;-79
2021/06/20 08:55:03;;;;;;;12.45;2.60;;;20.00;75.80;;;;;;4437973;32;20109;-78
2021/06/20 08:57:35;;;;;;;5.62;2.67;;;20.10;75.70;;;;;;4438048;32;20152;-78
2021/06/20 09:00:08;;;;;;;6.03;2.30;;;20.10;75.60;;;;;;4437691;32;20038;-78
2021/06/20 09:02:36;;;;;;;4.10;2.10;;;20.20;75.50;;;;;;4428663;32;20038;-78
2021/06/20 09:05:08;;;;;;;6.60;2.30;;;20.20;75.30;;;;;;4422324;32;20192;-78
2021/06/20 09:07:37;;;;;;;7.35;2.62;;;20.20;75.20;;;;;;4421907;32;20106;-78
2021/06/20 09:10:16;;;;;;;4.55;2.22;;;20.30;75.20;;;;;;4436339;32;20084;-79
2021/06/20 09:12:46;;;;;;;5.00;2.03;;;20.40;75.20;;;;;;4422434;32;20105;-78
2021/06/20 09:15:16;;;;;;;4.60;1.98;;;20.40;75.10;;;;;;4436011;32;20049;-78
2021/06/20 09:17:52;;;;;;;4.18;2.05;;;20.50;74.90;;;;;;4422414;32;20075;-78
2021/06/20 09:20:33;;;;;;;4.37;1.80;;;20.50;74.00;;;;;;4422000;32;20113;-78
2021/06/20 09:23:07;;;;;;;3.95;1.70;;;20.50;73.90;;;;;;4437168;32;20093;-79
2021/06/20 09:25:35;;;;;;;4.68;1.80;;;20.60;73.90;;;;;;4423162;32;20415;-78
2021/06/20 09:28:04;;;;;;;4.10;1.92;;;20.60;73.80;;;;;;4436693;32;20089;-80
2021/06/20 09:30:35;;;;;;;4.78;1.95;;;20.70;73.80;;;;;;4423001;32;20046;-78
2021/06/20 09:33:05;;;;;;;4.20;1.83;;;20.60;73.40;;;;;;4422833;32;20117;-79
2021/06/20 09:35:41;;;;;;;5.93;1.87;;;20.60;73.00;;;;;;4424451;32;20041;-79
2021/06/20 09:38:36;;;;;;;4.85;2.20;;;20.60;73.30;;;;;;4437914;32;20065;-78
2021/06/20 09:41:14;;;;;;;5.72;2.10;;;20.70;73.30;;;;;;4420510;32;20109;-78
2021/06/20 09:43:56;;;;;;;5.40;2.08;;;20.60;73.50;;;;;;4422835;32;20030;-78
2021/06/20 09:46:24;;;;;;;5.50;2.50;;;20.70;73.80;;;;;;4422868;32;20064;-78
2021/06/20 09:48:51;;;;;;;5.43;1.83;;;20.80;73.80;;;;;;4422705;32;20416;-78
2021/06/20 09:51:21;;;;;;;4.95;1.70;;;20.90;73.90;;;;;;4431946;32;20448;-78
2021/06/20 09:53:50;;;;;;;9.82;2.28;;;20.90;73.80;;;;;;4438588;32;20116;-78
2021/06/20 09:56:18;;;;;;;4.85;2.40;;;21.00;73.90;;;;;;4437995;32;20084;-78
2021/06/20 09:58:54;;;;;;;7.07;2.30;;;21.10;73.60;;;;;;4438110;32;20033;-78
2021/06/20 10:01:22;;;;;;;5.47;2.12;;;21.20;73.80;;;;;;4451847;32;20112;-78
2021/06/20 10:03:49;;;;;;;5.45;1.90;;;21.40;73.70;;;;;;4438712;32;20053;-78
2021/06/20 10:06:17;;;;;;;5.82;1.80;;;21.50;73.50;;;;;;4452001;32;20092;-78
2021/06/20 10:08:45;;;;;;;4.78;1.90;;;21.70;73.40;;;;;;4437891;32;20025;-78
2021/06/20 10:11:14;;;;;;;7.12;2.12;;;21.70;72.90;;;;;;4439058;32;20042;-78
2021/06/20 10:13:41;;;;;;;5.30;1.80;;;21.90;72.40;;;;;;4452439;32;20439;-78
2021/06/20 10:16:21;;;;;;;3.75;1.95;;;21.90;71.80;;;;;;4437247;32;20432;-78
2021/06/20 10:19:14;;;;;;;3.87;1.75;;;22.00;71.70;;;;;;4437828;32;20412;-79
2021/06/20 10:21:43;;;;;;;4.60;2.10;;;22.10;71.40;;;;;;4451554;32;20108;-79
2021/06/20 10:24:17;;;;;;;6.80;2.37;;;22.10;71.00;;;;;;4438087;32;20105;-79
2021/06/20 10:27:06;;;;;;;6.87;1.83;;;22.20;71.30;;;;;;4437693;32;20065;-79
2021/06/20 10:29:35;;;;;;;6.82;2.22;;;22.40;71.60;;;;;;4451466;32;20030;-87
2021/06/20 10:32:17;;;;;;;5.03;2.08;;;22.40;71.50;;;;;;4437284;32;20064;-79
2021/06/20 10:34:57;;;;;;;5.37;2.10;;;22.50;70.60;;;;;;4437477;32;20116;-79
2021/06/20 10:37:35;;;;;;;7.12;2.20;;;22.60;71.00;;;;;;4437588;32;20114;-79
2021/06/20 10:40:21;;;;;;;5.43;1.98;;;22.80;70.10;;;;;;4439965;32;20505;-79
2021/06/20 10:42:50;;;;;;;6.07;1.85;;;22.90;70.20;;;;;;4422208;32;20068;-79
2021/06/20 10:45:37;;;;;;;6.80;2.08;;;23.00;70.20;;;;;;4422102;32;20110;-79
2021/06/20 10:48:20;;;;;;;6.03;1.85;;;23.20;69.50;;;;;;4421898;32;20080;-79
2021/06/20 10:50:49;;;;;;;4.10;1.98;;;23.30;68.90;;;;;;4427987;32;20073;-79
2021/06/20 10:53:17;;;;;;;4.40;1.80;;;23.40;66.50;;;;;;4452224;32;20476;-79
2021/06/20 10:55:52;;;;;;;3.90;1.67;;;23.50;66.70;;;;;;4434572;32;20129;-79
2021/06/20 10:58:27;;;;;;;4.80;2.12;;;23.60;67.00;;;;;;4435841;32;20097;-79
2021/06/20 11:01:10;;;;;;;4.18;1.70;;;23.60;67.10;;;;;;4434532;32;20376;-79
2021/06/20 11:03:39;;;;;;;5.32;1.98;;;23.70;67.20;;;;;;4434822;32;20417;-79
2021/06/20 11:06:14;;;;;;;7.32;2.08;;;23.80;66.90;;;;;;4436565;32;20022;-79
2021/06/20 11:08:58;;;;;;;4.15;2.20;;;23.90;65.90;;;;;;4435359;32;20497;-79
2021/06/20 11:11:31;;;;;;;4.93;1.70;;;23.80;65.80;;;;;;4436349;32;20073;-79
2021/06/20 11:13:57;;;;;;;3.87;2.03;;;23.80;65.50;;;;;;4434379;32;20140;-79
2021/06/20 11:16:39;;;;;;;4.20;1.80;;;23.80;65.50;;;;;;4434705;32;20156;-80
2021/06/20 11:19:22;;;;;;;5.50;1.90;;;23.70;65.70;;;;;;4435850;32;20042;-79
2021/06/20 11:21:55;;;;;;;6.70;2.03;;;23.80;65.70;;;;;;4435664;32;20099;-79
2021/06/20 11:24:29;;;;;;;3.33;1.83;;;23.90;66.00;;;;;;4434528;32;20484;-79
2021/06/20 11:27:02;;;;;;;5.72;2.65;;;23.90;66.60;;;;;;4435681;32;20113;-79
2021/06/20 11:29:41;;;;;;;7.43;3.87;;;24.10;66.90;;;;;;4437442;32;20038;-79
2021/06/20 11:32:21;;;;;;;7.40;2.12;;;24.20;66.50;;;;;;4440062;32;20121;-80
2021/06/20 11:35:09;;;;;;;4.10;1.62;;;24.30;66.70;;;;;;4438696;32;20381;-79
2021/06/20 11:37:42;;;;;;;6.80;1.87;;;24.50;66.10;;;;;;4437469;32;20042;-79
2021/06/20 11:40:16;;;;;;;5.12;1.50;;;24.60;66.00;;;;;;4425119;32;20476;-79
2021/06/20 11:42:48;;;;;;;3.50;1.60;;;24.60;65.40;;;;;;4421938;32;20069;-79
2021/06/20 11:45:20;;;;;;;5.65;1.40;;;24.70;65.10;;;;;;4422080;32;20117;-80
2021/06/20 11:47:54;;;;;;;3.95;1.70;;;24.80;64.80;;;;;;4422522;32;20070;-79
2021/06/20 11:50:25;;;;;;;4.87;1.50;;;24.90;64.40;;;;;;4426207;32;20062;-79
2021/06/20 11:53:07;;;;;;;4.40;1.55;;;24.80;64.30;;;;;;4438316;32;20057;-79
2021/06/20 11:55:39;;;;;;;5.28;1.50;;;24.90;64.10;;;;;;4437070;32;20401;-79
2021/06/20 11:58:08;;;;;;;3.80;1.80;;;24.90;64.00;;;;;;4436919;32;20480;-79
2021/06/20 12:00:37;;;;;;;3.70;1.65;;;25.00;64.00;;;;;;4437125;32;20068;-79
2021/06/20 12:03:27;;;;;;;4.40;1.50;;;25.00;63.70;;;;;;4437141;32;20117;-80
2021/06/20 12:05:59;;;;;;;4.87;1.80;;;25.10;63.30;;;;;;4438067;32;20098;-79
2021/06/20 12:08:27;;;;;;;4.80;1.90;;;25.20;63.00;;;;;;4437020;32;20113;-79
2021/06/20 12:10:55;;;;;;;6.53;1.58;;;25.20;63.30;;;;;;4436956;32;20026;-79
2021/06/20 12:13:22;;;;;;;2.95;1.40;;;25.30;63.40;;;;;;4436773;32;20052;-79
2021/06/20 12:15:59;;;;;;;3.53;1.48;;;25.30;63.40;;;;;;4437963;32;20089;-80
2021/06/20 12:18:28;;;;;;;5.32;3.00;;;25.30;62.10;;;;;;4436851;32;20052;-80
2021/06/20 12:20:55;;;;;;;4.00;1.80;;;25.40;62.70;;;;;;4436669;32;20420;-80
2021/06/20 12:23:34;;;;;;;6.35;1.80;;;25.50;63.10;;;;;;4438753;32;20132;-80
2021/06/20 12:26:03;;;;;;;4.50;1.92;;;25.70;63.10;;;;;;4436708;32;20102;-79
2021/06/20 12:28:30;;;;;;;3.35;1.60;;;25.80;62.50;;;;;;4437886;32;20104;-80
2021/06/20 12:30:57;;;;;;;4.93;1.50;;;25.90;62.10;;;;;;4437768;32;20431;-80
2021/06/20 12:33:26;;;;;;;4.57;1.45;;;25.90;61.90;;;;;;4436501;32;20072;-79
2021/06/20 12:36:02;;;;;;;3.25;1.17;;;25.90;62.00;;;;;;4437707;32;20022;-80
2021/06/20 12:38:33;;;;;;;5.53;1.62;;;26.00;61.60;;;;;;4434065;32;20097;-78
2021/06/20 12:41:01;;;;;;;3.47;1.40;;;26.10;61.50;;;;;;4421316;32;20334;-80
2021/06/20 12:43:29;;;;;;;3.47;1.42;;;26.10;61.30;;;;;;4421151;32;20124;-79
2021/06/20 12:46:02;;;;;;;3.17;1.17;;;26.20;60.80;;;;;;4421169;32;20054;-80
2021/06/20 12:48:38;;;;;;;4.32;1.20;;;26.30;60.40;;;;;;4421705;32;20042;-80
2021/06/20 12:51:08;;;;;;;3.92;1.27;;;26.40;59.30;;;;;;4429894;32;20050;-80
2021/06/20 12:53:41;;;;;;;3.10;1.30;;;26.50;59.30;;;;;;4436362;32;20018;-80